Terminal Aerodrome Forecast
Issued by NWS Springfield, MO

Home | Current Version | Previous Version | Text Only | Print | Product List | Glossary On
Versions: 1 2 3 4 5 6 7 8 9 10 11 12 13 14 15 16 17 18 19 20 21 22 23 24 25 26 27
000
FTUS43 KSGF 201722
TAFSGF
TAF
KSGF 201722Z 2018/2118 18016G24KT P6SM VCSH SCT025 OVC050
     FM202300 20009KT P6SM VCSH OVC060
     FM210800 VRB04KT 6SM BR BKN015
      TEMPO 2110/2114 3SM BR BKN008=

USA.gov is the U.S. government's official web portal to all federal, state and local government web resources and services.